sensor_id;sensor_type;location;lat;lon;timestamp;temperature;humidity
42201;DHT22;27869;51.442;7.540;2022-11-24T00:00:48;8.40;99.90
42201;DHT22;27869;51.442;7.540;2022-11-24T00:03:15;8.40;99.90
42201;DHT22;27869;51.442;7.540;2022-11-24T00:05:42;8.40;99.90
42201;DHT22;27869;51.442;7.540;2022-11-24T00:08:09;8.40;99.90
42201;DHT22;27869;51.442;7.540;2022-11-24T00:10:37;8.50;99.90
42201;DHT22;27869;51.442;7.540;2022-11-24T00:13:04;8.50;99.90
42201;DHT22;27869;51.442;7.540;2022-11-24T00:15:31;8.50;99.90
42201;DHT22;27869;51.442;7.540;2022-11-24T00:17:58;8.50;99.90
42201;DHT22;27869;51.442;7.540;2022-11-24T00:20:25;8.50;99.90
42201;DHT22;27869;51.442;7.540;2022-11-24T00:22:52;8.50;99.90
42201;DHT22;27869;51.442;7.540;2022-11-24T00:25:20;8.50;99.90
42201;DHT22;27869;51.442;7.540;2022-11-24T00:27:48;8.50;99.90
42201;DHT22;27869;51.442;7.540;2022-11-24T00:30:15;8.50;99.90
42201;DHT22;27869;51.442;7.540;2022-11-24T00:32:42;8.50;99.90
42201;DHT22;27869;51.442;7.540;2022-11-24T00:35:09;8.50;99.90
42201;DHT22;27869;51.442;7.540;2022-11-24T00:37:36;8.50;99.90
42201;DHT22;27869;51.442;7.540;2022-11-24T00:40:03;8.50;99.90
42201;DHT22;27869;51.442;7.540;2022-11-24T00:42:31;8.50;99.90
42201;DHT22;27869;51.442;7.540;2022-11-24T00:44:59;8.50;99.90
42201;DHT22;27869;51.442;7.540;2022-11-24T00:47:26;8.50;99.90
42201;DHT22;27869;51.442;7.540;2022-11-24T00:49:53;8.50;99.90
42201;DHT22;27869;51.442;7.540;2022-11-24T00:52:20;8.50;99.90
42201;DHT22;27869;51.442;7.540;2022-11-24T00:54:47;8.50;99.90
42201;DHT22;27869;51.442;7.540;2022-11-24T00:57:14;8.50;99.90
42201;DHT22;27869;51.442;7.540;2022-11-24T00:59:41;8.50;99.90
42201;DHT22;27869;51.442;7.540;2022-11-24T01:02:09;8.50;99.90
42201;DHT22;27869;51.442;7.540;2022-11-24T01:04:36;8.50;99.90
42201;DHT22;27869;51.442;7.540;2022-11-24T01:07:03;8.50;99.90
42201;DHT22;27869;51.442;7.540;2022-11-24T01:09:31;8.50;99.90
42201;DHT22;27869;51.442;7.540;2022-11-24T01:11:58;8.50;99.90
42201;DHT22;27869;51.442;7.540;2022-11-24T01:14:29;8.50;99.90
42201;DHT22;27869;51.442;7.540;2022-11-24T01:16:56;8.50;99.90
42201;DHT22;27869;51.442;7.540;2022-11-24T01:19:24;8.50;99.90
42201;DHT22;27869;51.442;7.540;2022-11-24T01:21:51;8.50;99.90
42201;DHT22;27869;51.442;7.540;2022-11-24T01:24:18;8.50;99.90
42201;DHT22;27869;51.442;7.540;2022-11-24T01:26:45;8.40;99.90
42201;DHT22;27869;51.442;7.540;2022-11-24T01:29:12;8.40;99.90
42201;DHT22;27869;51.442;7.540;2022-11-24T01:31:39;8.40;99.90
42201;DHT22;27869;51.442;7.540;2022-11-24T01:34:06;8.40;99.90
42201;DHT22;27869;51.442;7.540;2022-11-24T01:36:34;8.40;99.90
42201;DHT22;27869;51.442;7.540;2022-11-24T01:39:01;8.40;99.90
42201;DHT22;27869;51.442;7.540;2022-11-24T01:41:28;8.40;99.90
42201;DHT22;27869;51.442;7.540;2022-11-24T01:43:55;8.40;99.90
42201;DHT22;27869;51.442;7.540;2022-11-24T01:46:27;8.40;99.90
42201;DHT22;27869;51.442;7.540;2022-11-24T01:49:00;8.40;99.90
42201;DHT22;27869;51.442;7.540;2022-11-24T01:51:30;8.50;99.90
42201;DHT22;27869;51.442;7.540;2022-11-24T01:54:04;8.40;99.90
42201;DHT22;27869;51.442;7.540;2022-11-24T01:56:34;8.40;99.90
42201;DHT22;27869;51.442;7.540;2022-11-24T01:59:04;8.40;99.90
42201;DHT22;27869;51.442;7.540;2022-11-24T02:01:32;8.40;99.90
42201;DHT22;27869;51.442;7.540;2022-11-24T02:04:00;8.40;99.90
42201;DHT22;27869;51.442;7.540;2022-11-24T02:06:29;8.40;99.90
42201;DHT22;27869;51.442;7.540;2022-11-24T02:08:59;8.40;99.90
42201;DHT22;27869;51.442;7.540;2022-11-24T02:11:33;8.40;99.90
42201;DHT22;27869;51.442;7.540;2022-11-24T02:14:01;8.40;99.90
42201;DHT22;27869;51.442;7.540;2022-11-24T02:16:29;8.40;99.90
42201;DHT22;27869;51.442;7.540;2022-11-24T02:18:57;8.40;99.90
42201;DHT22;27869;51.442;7.540;2022-11-24T02:21:24;8.40;99.90
42201;DHT22;27869;51.442;7.540;2022-11-24T02:23:58;8.40;99.90
42201;DHT22;27869;51.442;7.540;2022-11-24T02:26:39;8.40;99.90
42201;DHT22;27869;51.442;7.540;2022-11-24T02:29:07;8.40;99.90
42201;DHT22;27869;51.442;7.540;2022-11-24T02:31:34;8.40;99.90
42201;DHT22;27869;51.442;7.540;2022-11-24T02:34:01;8.40;99.90
42201;DHT22;27869;51.442;7.540;2022-11-24T02:36:27;8.50;99.90
42201;DHT22;27869;51.442;7.540;2022-11-24T02:38:54;8.50;99.90
42201;DHT22;27869;51.442;7.540;2022-11-24T02:41:24;8.50;99.90
42201;DHT22;27869;51.442;7.540;2022-11-24T02:43:54;8.50;99.90
42201;DHT22;27869;51.442;7.540;2022-11-24T02:46:22;8.50;99.90
42201;DHT22;27869;51.442;7.540;2022-11-24T02:48:48;8.50;99.90
42201;DHT22;27869;51.442;7.540;2022-11-24T02:51:16;8.50;99.90
42201;DHT22;27869;51.442;7.540;2022-11-24T02:53:43;8.50;99.90
42201;DHT22;27869;51.442;7.540;2022-11-24T02:56:09;8.50;99.90
42201;DHT22;27869;51.442;7.540;2022-11-24T02:58:37;8.50;99.90
42201;DHT22;27869;51.442;7.540;2022-11-24T03:01:05;8.50;99.90
42201;DHT22;27869;51.442;7.540;2022-11-24T03:03:33;8.50;99.90
42201;DHT22;27869;51.442;7.540;2022-11-24T03:06:00;8.60;99.90
42201;DHT22;27869;51.442;7.540;2022-11-24T03:08:27;8.60;99.90
42201;DHT22;27869;51.442;7.540;2022-11-24T03:10:54;8.60;99.90
42201;DHT22;27869;51.442;7.540;2022-11-24T03:13:20;8.60;99.90
42201;DHT22;27869;51.442;7.540;2022-11-24T03:15:47;8.60;99.90
42201;DHT22;27869;51.442;7.540;2022-11-24T03:18:15;8.60;99.90
42201;DHT22;27869;51.442;7.540;2022-11-24T03:20:42;8.60;99.90
42201;DHT22;27869;51.442;7.540;2022-11-24T03:23:10;8.60;99.90
42201;DHT22;27869;51.442;7.540;2022-11-24T03:25:37;8.60;99.90
42201;DHT22;27869;51.442;7.540;2022-11-24T03:28:04;8.60;99.90
42201;DHT22;27869;51.442;7.540;2022-11-24T03:30:31;8.60;99.90
42201;DHT22;27869;51.442;7.540;2022-11-24T03:32:58;8.60;99.90
42201;DHT22;27869;51.442;7.540;2022-11-24T03:35:26;8.60;99.90
42201;DHT22;27869;51.442;7.540;2022-11-24T03:37:53;8.60;99.90
42201;DHT22;27869;51.442;7.540;2022-11-24T03:40:20;8.60;99.90
42201;DHT22;27869;51.442;7.540;2022-11-24T03:42:47;8.60;99.90
42201;DHT22;27869;51.442;7.540;2022-11-24T03:45:14;8.60;99.90
42201;DHT22;27869;51.442;7.540;2022-11-24T03:47:40;8.60;99.90
42201;DHT22;27869;51.442;7.540;2022-11-24T03:50:08;8.60;99.90
42201;DHT22;27869;51.442;7.540;2022-11-24T03:52:36;8.60;99.90
42201;DHT22;27869;51.442;7.540;2022-11-24T03:55:03;8.60;99.90
42201;DHT22;27869;51.442;7.540;2022-11-24T03:57:30;8.60;99.90
42201;DHT22;27869;51.442;7.540;2022-11-24T03:59:57;8.60;99.90
42201;DHT22;27869;51.442;7.540;2022-11-24T04:02:24;8.60;99.90
42201;DHT22;27869;51.442;7.540;2022-11-24T04:04:51;8.60;99.90
42201;DHT22;27869;51.442;7.540;2022-11-24T04:07:18;8.60;99.90
42201;DHT22;27869;51.442;7.540;2022-11-24T04:09:46;8.60;99.90
42201;DHT22;27869;51.442;7.540;2022-11-24T04:12:13;8.60;99.90
42201;DHT22;27869;51.442;7.540;2022-11-24T04:14:58;8.60;99.90
42201;DHT22;27869;51.442;7.540;2022-11-24T04:17:24;8.60;99.90
42201;DHT22;27869;51.442;7.540;2022-11-24T04:19:51;8.60;99.90
42201;DHT22;27869;51.442;7.540;2022-11-24T04:22:18;8.60;99.90
42201;DHT22;27869;51.442;7.540;2022-11-24T04:24:46;8.60;99.90
42201;DHT22;27869;51.442;7.540;2022-11-24T04:27:13;8.60;99.90
42201;DHT22;27869;51.442;7.540;2022-11-24T04:29:40;8.60;99.90
42201;DHT22;27869;51.442;7.540;2022-11-24T04:32:07;8.60;99.90
42201;DHT22;27869;51.442;7.540;2022-11-24T04:34:34;8.60;99.90
42201;DHT22;27869;51.442;7.540;2022-11-24T04:37:01;8.60;99.90
42201;DHT22;27869;51.442;7.540;2022-11-24T04:39:28;8.60;99.90
42201;DHT22;27869;51.442;7.540;2022-11-24T04:41:56;8.60;99.90
42201;DHT22;27869;51.442;7.540;2022-11-24T04:44:23;8.60;99.90
42201;DHT22;27869;51.442;7.540;2022-11-24T04:46:50;8.60;99.90
42201;DHT22;27869;51.442;7.540;2022-11-24T04:49:17;8.60;99.90
42201;DHT22;27869;51.442;7.540;2022-11-24T04:51:44;8.60;99.90
42201;DHT22;27869;51.442;7.540;2022-11-24T04:54:12;8.60;99.90
42201;DHT22;27869;51.442;7.540;2022-11-24T04:56:39;8.70;99.90
42201;DHT22;27869;51.442;7.540;2022-11-24T04:59:12;8.70;99.90
42201;DHT22;27869;51.442;7.540;2022-11-24T05:01:39;8.70;99.90
42201;DHT22;27869;51.442;7.540;2022-11-24T05:04:07;8.60;99.90
42201;DHT22;27869;51.442;7.540;2022-11-24T05:06:35;8.70;99.90
42201;DHT22;27869;51.442;7.540;2022-11-24T05:09:03;8.70;99.90
42201;DHT22;27869;51.442;7.540;2022-11-24T05:11:30;8.60;99.90
42201;DHT22;27869;51.442;7.540;2022-11-24T05:13:57;8.60;99.90
42201;DHT22;27869;51.442;7.540;2022-11-24T05:16:25;8.60;99.90
42201;DHT22;27869;51.442;7.540;2022-11-24T05:18:52;8.60;99.90
42201;DHT22;27869;51.442;7.540;2022-11-24T05:21:19;8.60;99.90
42201;DHT22;27869;51.442;7.540;2022-11-24T05:23:46;8.60;99.90
42201;DHT22;27869;51.442;7.540;2022-11-24T05:26:12;8.60;99.90
42201;DHT22;27869;51.442;7.540;2022-11-24T05:28:39;8.60;99.90
42201;DHT22;27869;51.442;7.540;2022-11-24T05:31:06;8.60;99.90
42201;DHT22;27869;51.442;7.540;2022-11-24T05:33:35;8.50;99.90
42201;DHT22;27869;51.442;7.540;2022-11-24T05:36:04;8.60;99.90
42201;DHT22;27869;51.442;7.540;2022-11-24T05:38:32;8.60;99.90
42201;DHT22;27869;51.442;7.540;2022-11-24T05:41:00;8.60;99.90
42201;DHT22;27869;51.442;7.540;2022-11-24T05:43:27;8.60;99.90
42201;DHT22;27869;51.442;7.540;2022-11-24T05:45:54;8.60;99.90
42201;DHT22;27869;51.442;7.540;2022-11-24T05:48:20;8.60;99.90
42201;DHT22;27869;51.442;7.540;2022-11-24T05:50:54;8.60;99.90
42201;DHT22;27869;51.442;7.540;2022-11-24T05:53:21;8.60;99.90
42201;DHT22;27869;51.442;7.540;2022-11-24T05:55:48;8.60;99.90
42201;DHT22;27869;51.442;7.540;2022-11-24T05:58:15;8.60;99.90
42201;DHT22;27869;51.442;7.540;2022-11-24T06:00:42;8.50;99.90
42201;DHT22;27869;51.442;7.540;2022-11-24T06:03:09;8.60;99.90
42201;DHT22;27869;51.442;7.540;2022-11-24T06:05:37;8.60;99.90
42201;DHT22;27869;51.442;7.540;2022-11-24T06:08:05;8.60;99.90
42201;DHT22;27869;51.442;7.540;2022-11-24T06:10:32;8.60;99.90
42201;DHT22;27869;51.442;7.540;2022-11-24T06:13:03;8.60;99.90
42201;DHT22;27869;51.442;7.540;2022-11-24T06:15:30;8.60;99.90
42201;DHT22;27869;51.442;7.540;2022-11-24T06:17:57;8.60;99.90
42201;DHT22;27869;51.442;7.540;2022-11-24T06:20:24;8.60;99.90
42201;DHT22;27869;51.442;7.540;2022-11-24T06:22:51;8.60;99.90
42201;DHT22;27869;51.442;7.540;2022-11-24T06:25:19;8.60;99.90
42201;DHT22;27869;51.442;7.540;2022-11-24T06:27:46;8.60;99.90
42201;DHT22;27869;51.442;7.540;2022-11-24T06:30:14;8.60;99.90
42201;DHT22;27869;51.442;7.540;2022-11-24T06:32:41;8.60;99.90
42201;DHT22;27869;51.442;7.540;2022-11-24T06:35:10;8.60;99.90
42201;DHT22;27869;51.442;7.540;2022-11-24T06:37:37;8.60;99.90
42201;DHT22;27869;51.442;7.540;2022-11-24T06:40:05;8.60;99.90
42201;DHT22;27869;51.442;7.540;2022-11-24T06:42:34;8.60;99.90
42201;DHT22;27869;51.442;7.540;2022-11-24T06:45:02;8.60;99.90
42201;DHT22;27869;51.442;7.540;2022-11-24T06:47:29;8.60;99.90
42201;DHT22;27869;51.442;7.540;2022-11-24T06:49:55;8.60;99.90
42201;DHT22;27869;51.442;7.540;2022-11-24T06:52:23;8.60;99.90
42201;DHT22;27869;51.442;7.540;2022-11-24T06:54:50;8.60;99.90
42201;DHT22;27869;51.442;7.540;2022-11-24T06:57:18;8.70;99.90
42201;DHT22;27869;51.442;7.540;2022-11-24T06:59:46;8.70;99.90
42201;DHT22;27869;51.442;7.540;2022-11-24T07:02:13;8.70;99.90
42201;DHT22;27869;51.442;7.540;2022-11-24T07:04:40;8.70;99.90
42201;DHT22;27869;51.442;7.540;2022-11-24T07:07:07;8.70;99.90
42201;DHT22;27869;51.442;7.540;2022-11-24T07:09:34;8.70;99.90
42201;DHT22;27869;51.442;7.540;2022-11-24T07:12:00;8.70;99.90
42201;DHT22;27869;51.442;7.540;2022-11-24T07:14:28;8.70;99.90
42201;DHT22;27869;51.442;7.540;2022-11-24T07:16:56;8.70;99.90
42201;DHT22;27869;51.442;7.540;2022-11-24T07:19:23;8.70;99.90
42201;DHT22;27869;51.442;7.540;2022-11-24T07:21:49;8.70;99.90
42201;DHT22;27869;51.442;7.540;2022-11-24T07:24:16;8.70;99.90
42201;DHT22;27869;51.442;7.540;2022-11-24T07:26:43;8.70;99.90
42201;DHT22;27869;51.442;7.540;2022-11-24T07:29:10;8.70;99.90
42201;DHT22;27869;51.442;7.540;2022-11-24T07:31:37;8.80;99.90
42201;DHT22;27869;51.442;7.540;2022-11-24T07:34:05;8.80;99.90
42201;DHT22;27869;51.442;7.540;2022-11-24T07:36:32;8.80;99.90
42201;DHT22;27869;51.442;7.540;2022-11-24T07:38:59;8.80;99.90
42201;DHT22;27869;51.442;7.540;2022-11-24T07:41:26;8.80;99.90
42201;DHT22;27869;51.442;7.540;2022-11-24T07:43:53;8.80;99.90
42201;DHT22;27869;51.442;7.540;2022-11-24T07:46:19;8.80;99.90
42201;DHT22;27869;51.442;7.540;2022-11-24T07:48:46;8.80;99.90
42201;DHT22;27869;51.442;7.540;2022-11-24T07:51:15;8.80;99.90
42201;DHT22;27869;51.442;7.540;2022-11-24T07:53:42;8.80;99.90
42201;DHT22;27869;51.442;7.540;2022-11-24T07:56:09;8.80;99.90
42201;DHT22;27869;51.442;7.540;2022-11-24T07:58:37;8.80;99.90
42201;DHT22;27869;51.442;7.540;2022-11-24T08:01:11;8.80;99.90
42201;DHT22;27869;51.442;7.540;2022-11-24T08:03:38;8.80;99.90
42201;DHT22;27869;51.442;7.540;2022-11-24T08:06:06;8.80;99.90
42201;DHT22;27869;51.442;7.540;2022-11-24T08:08:34;8.80;99.90
42201;DHT22;27869;51.442;7.540;2022-11-24T08:11:05;8.80;99.90
42201;DHT22;27869;51.442;7.540;2022-11-24T08:13:33;8.80;99.90
42201;DHT22;27869;51.442;7.540;2022-11-24T08:16:03;8.80;99.90
42201;DHT22;27869;51.442;7.540;2022-11-24T08:18:31;8.80;99.90
42201;DHT22;27869;51.442;7.540;2022-11-24T08:20:58;8.90;99.90
42201;DHT22;27869;51.442;7.540;2022-11-24T08:23:25;8.90;99.90
42201;DHT22;27869;51.442;7.540;2022-11-24T08:25:53;8.90;99.90
42201;DHT22;27869;51.442;7.540;2022-11-24T08:28:21;8.90;99.90
42201;DHT22;27869;51.442;7.540;2022-11-24T08:30:48;8.90;99.90
42201;DHT22;27869;51.442;7.540;2022-11-24T08:33:15;8.90;99.90
42201;DHT22;27869;51.442;7.540;2022-11-24T08:35:42;8.90;99.90
42201;DHT22;27869;51.442;7.540;2022-11-24T08:38:09;8.90;99.90
42201;DHT22;27869;51.442;7.540;2022-11-24T08:40:36;8.80;99.90
42201;DHT22;27869;51.442;7.540;2022-11-24T08:43:04;8.90;99.90
42201;DHT22;27869;51.442;7.540;2022-11-24T08:45:31;8.90;99.90
42201;DHT22;27869;51.442;7.540;2022-11-24T08:47:58;8.90;99.90
42201;DHT22;27869;51.442;7.540;2022-11-24T08:50:25;8.90;99.90
42201;DHT22;27869;51.442;7.540;2022-11-24T08:52:52;8.90;99.90
42201;DHT22;27869;51.442;7.540;2022-11-24T08:55:19;8.90;99.90
42201;DHT22;27869;51.442;7.540;2022-11-24T08:57:46;8.90;99.90
42201;DHT22;27869;51.442;7.540;2022-11-24T09:00:15;8.90;99.90
42201;DHT22;27869;51.442;7.540;2022-11-24T09:02:54;8.90;99.90
42201;DHT22;27869;51.442;7.540;2022-11-24T09:05:21;8.90;99.90
42201;DHT22;27869;51.442;7.540;2022-11-24T09:07:48;8.90;99.90
42201;DHT22;27869;51.442;7.540;2022-11-24T09:10:15;8.90;99.90
42201;DHT22;27869;51.442;7.540;2022-11-24T09:12:43;8.90;99.90
42201;DHT22;27869;51.442;7.540;2022-11-24T09:15:10;8.90;99.90
42201;DHT22;27869;51.442;7.540;2022-11-24T09:17:39;8.90;99.90
42201;DHT22;27869;51.442;7.540;2022-11-24T09:20:06;9.00;99.90
42201;DHT22;27869;51.442;7.540;2022-11-24T09:22:34;9.00;99.90
42201;DHT22;27869;51.442;7.540;2022-11-24T09:25:03;9.00;99.90
42201;DHT22;27869;51.442;7.540;2022-11-24T09:27:30;9.00;99.90
42201;DHT22;27869;51.442;7.540;2022-11-24T09:29:57;8.90;99.90
42201;DHT22;27869;51.442;7.540;2022-11-24T09:32:24;8.90;99.90
42201;DHT22;27869;51.442;7.540;2022-11-24T09:34:52;8.90;99.90
42201;DHT22;27869;51.442;7.540;2022-11-24T09:37:19;8.90;99.90
42201;DHT22;27869;51.442;7.540;2022-11-24T09:39:46;8.80;99.90
42201;DHT22;27869;51.442;7.540;2022-11-24T09:42:14;8.80;99.90
42201;DHT22;27869;51.442;7.540;2022-11-24T09:45:10;8.80;99.90
42201;DHT22;27869;51.442;7.540;2022-11-24T09:47:48;8.80;99.90
42201;DHT22;27869;51.442;7.540;2022-11-24T09:50:22;8.80;99.90
42201;DHT22;27869;51.442;7.540;2022-11-24T09:52:53;8.80;99.90
42201;DHT22;27869;51.442;7.540;2022-11-24T09:55:32;8.80;99.90
42201;DHT22;27869;51.442;7.540;2022-11-24T09:58:20;8.90;99.90
42201;DHT22;27869;51.442;7.540;2022-11-24T10:00:51;8.90;99.90
42201;DHT22;27869;51.442;7.540;2022-11-24T10:03:23;8.90;99.90
42201;DHT22;27869;51.442;7.540;2022-11-24T10:05:53;8.90;99.90
42201;DHT22;27869;51.442;7.540;2022-11-24T10:08:34;8.90;99.90
42201;DHT22;27869;51.442;7.540;2022-11-24T10:11:11;9.00;99.90
42201;DHT22;27869;51.442;7.540;2022-11-24T10:16:51;9.00;99.90
42201;DHT22;27869;51.442;7.540;2022-11-24T10:19:29;9.00;99.90
42201;DHT22;27869;51.442;7.540;2022-11-24T10:22:05;9.10;99.90
42201;DHT22;27869;51.442;7.540;2022-11-24T10:24:50;9.10;99.90
42201;DHT22;27869;51.442;7.540;2022-11-24T10:27:22;9.20;99.90
42201;DHT22;27869;51.442;7.540;2022-11-24T10:29:52;9.20;99.90
42201;DHT22;27869;51.442;7.540;2022-11-24T10:32:23;9.20;99.90
42201;DHT22;27869;51.442;7.540;2022-11-24T10:34:51;9.20;99.90
42201;DHT22;27869;51.442;7.540;2022-11-24T10:37:24;9.20;99.90
42201;DHT22;27869;51.442;7.540;2022-11-24T10:40:02;9.20;99.90
42201;DHT22;27869;51.442;7.540;2022-11-24T10:42:35;9.20;99.90
42201;DHT22;27869;51.442;7.540;2022-11-24T10:45:08;9.30;99.90
42201;DHT22;27869;51.442;7.540;2022-11-24T10:47:36;9.30;99.90
42201;DHT22;27869;51.442;7.540;2022-11-24T10:50:11;9.30;99.90
42201;DHT22;27869;51.442;7.540;2022-11-24T10:52:43;9.30;99.90
42201;DHT22;27869;51.442;7.540;2022-11-24T10:55:12;9.30;99.90
42201;DHT22;27869;51.442;7.540;2022-11-24T10:57:40;9.40;99.90
42201;DHT22;27869;51.442;7.540;2022-11-24T11:00:29;9.30;99.90
42201;DHT22;27869;51.442;7.540;2022-11-24T11:03:13;9.30;99.90
42201;DHT22;27869;51.442;7.540;2022-11-24T11:05:42;9.30;99.90
42201;DHT22;27869;51.442;7.540;2022-11-24T11:08:23;9.30;99.90
42201;DHT22;27869;51.442;7.540;2022-11-24T11:11:11;9.40;99.90
42201;DHT22;27869;51.442;7.540;2022-11-24T11:13:46;9.30;99.90
42201;DHT22;27869;51.442;7.540;2022-11-24T11:16:28;9.30;99.90
42201;DHT22;27869;51.442;7.540;2022-11-24T11:18:56;9.40;99.90
42201;DHT22;27869;51.442;7.540;2022-11-24T11:21:33;9.40;99.90
42201;DHT22;27869;51.442;7.540;2022-11-24T11:24:04;9.40;99.90
42201;DHT22;27869;51.442;7.540;2022-11-24T11:26:37;9.40;99.90
42201;DHT22;27869;51.442;7.540;2022-11-24T11:29:16;9.50;99.90
42201;DHT22;27869;51.442;7.540;2022-11-24T11:32:00;9.50;99.90
42201;DHT22;27869;51.442;7.540;2022-11-24T11:34:34;9.50;99.90
42201;DHT22;27869;51.442;7.540;2022-11-24T11:37:02;9.50;99.90
42201;DHT22;27869;51.442;7.540;2022-11-24T11:39:32;9.50;99.90
42201;DHT22;27869;51.442;7.540;2022-11-24T11:42:07;9.50;99.90
42201;DHT22;27869;51.442;7.540;2022-11-24T11:44:39;9.50;99.90
42201;DHT22;27869;51.442;7.540;2022-11-24T11:47:14;9.50;99.90
42201;DHT22;27869;51.442;7.540;2022-11-24T11:49:43;9.60;99.90
42201;DHT22;27869;51.442;7.540;2022-11-24T11:52:46;9.60;99.90
42201;DHT22;27869;51.442;7.540;2022-11-24T11:55:52;9.60;99.90
42201;DHT22;27869;51.442;7.540;2022-11-24T12:02:08;9.70;99.90
42201;DHT22;27869;51.442;7.540;2022-11-24T12:04:45;9.80;99.90
42201;DHT22;27869;51.442;7.540;2022-11-24T12:07:35;9.80;99.90
42201;DHT22;27869;51.442;7.540;2022-11-24T12:10:15;9.90;99.90
42201;DHT22;27869;51.442;7.540;2022-11-24T12:12:59;9.90;99.90
42201;DHT22;27869;51.442;7.540;2022-11-24T12:15:30;9.90;99.90
42201;DHT22;27869;51.442;7.540;2022-11-24T12:18:10;9.90;99.90
42201;DHT22;27869;51.442;7.540;2022-11-24T12:20:47;10.00;99.90
42201;DHT22;27869;51.442;7.540;2022-11-24T12:23:22;10.00;99.90
42201;DHT22;27869;51.442;7.540;2022-11-24T12:25:58;10.00;99.90
42201;DHT22;27869;51.442;7.540;2022-11-24T12:28:36;10.00;99.90
42201;DHT22;27869;51.442;7.540;2022-11-24T12:31:06;10.00;99.90
42201;DHT22;27869;51.442;7.540;2022-11-24T12:33:50;10.10;99.90
42201;DHT22;27869;51.442;7.540;2022-11-24T12:36:30;10.10;99.90
42201;DHT22;27869;51.442;7.540;2022-11-24T12:39:03;10.10;99.90
42201;DHT22;27869;51.442;7.540;2022-11-24T12:41:41;10.10;99.90
42201;DHT22;27869;51.442;7.540;2022-11-24T12:44:27;10.10;99.90
42201;DHT22;27869;51.442;7.540;2022-11-24T12:47:02;10.20;99.90
42201;DHT22;27869;51.442;7.540;2022-11-24T12:49:37;10.20;99.90
42201;DHT22;27869;51.442;7.540;2022-11-24T12:52:15;10.20;99.90
42201;DHT22;27869;51.442;7.540;2022-11-24T12:54:45;10.20;99.90
42201;DHT22;27869;51.442;7.540;2022-11-24T12:57:16;10.20;99.90
42201;DHT22;27869;51.442;7.540;2022-11-24T12:59:51;10.30;99.90
42201;DHT22;27869;51.442;7.540;2022-11-24T13:02:31;10.40;99.90
42201;DHT22;27869;51.442;7.540;2022-11-24T13:05:07;10.40;99.90
42201;DHT22;27869;51.442;7.540;2022-11-24T13:07:44;10.50;99.90
42201;DHT22;27869;51.442;7.540;2022-11-24T13:10:29;10.60;99.90
42201;DHT22;27869;51.442;7.540;2022-11-24T13:12:58;10.70;99.90
42201;DHT22;27869;51.442;7.540;2022-11-24T13:15:28;10.70;99.90
42201;DHT22;27869;51.442;7.540;2022-11-24T13:17:56;10.80;99.90
42201;DHT22;27869;51.442;7.540;2022-11-24T13:20:25;10.80;99.90
42201;DHT22;27869;51.442;7.540;2022-11-24T13:22:53;10.90;99.90
42201;DHT22;27869;51.442;7.540;2022-11-24T13:25:23;10.90;99.90
42201;DHT22;27869;51.442;7.540;2022-11-24T13:27:51;10.90;99.90
42201;DHT22;27869;51.442;7.540;2022-11-24T13:31:05;10.90;99.90
42201;DHT22;27869;51.442;7.540;2022-11-24T13:33:37;10.90;99.90
42201;DHT22;27869;51.442;7.540;2022-11-24T13:39:19;11.00;99.90
42201;DHT22;27869;51.442;7.540;2022-11-24T13:42:07;11.00;99.90
42201;DHT22;27869;51.442;7.540;2022-11-24T13:44:58;11.00;99.90
42201;DHT22;27869;51.442;7.540;2022-11-24T13:47:39;11.00;99.90
42201;DHT22;27869;51.442;7.540;2022-11-24T13:50:10;11.00;99.90
42201;DHT22;27869;51.442;7.540;2022-11-24T13:52:44;11.00;99.90
42201;DHT22;27869;51.442;7.540;2022-11-24T13:55:23;11.00;99.90
42201;DHT22;27869;51.442;7.540;2022-11-24T13:57:53;11.00;99.90
42201;DHT22;27869;51.442;7.540;2022-11-24T14:00:23;10.90;99.90
42201;DHT22;27869;51.442;7.540;2022-11-24T14:02:54;10.90;99.90
42201;DHT22;27869;51.442;7.540;2022-11-24T14:05:28;10.90;99.90
42201;DHT22;27869;51.442;7.540;2022-11-24T14:07:57;10.90;99.90
42201;DHT22;27869;51.442;7.540;2022-11-24T14:10:29;10.90;99.90
42201;DHT22;27869;51.442;7.540;2022-11-24T14:13:15;10.90;99.90
42201;DHT22;27869;51.442;7.540;2022-11-24T14:15:43;10.90;99.90
42201;DHT22;27869;51.442;7.540;2022-11-24T14:18:20;10.90;99.90
42201;DHT22;27869;51.442;7.540;2022-11-24T14:20:47;10.90;99.90
42201;DHT22;27869;51.442;7.540;2022-11-24T14:23:14;10.90;99.90
42201;DHT22;27869;51.442;7.540;2022-11-24T14:25:46;10.90;99.90
42201;DHT22;27869;51.442;7.540;2022-11-24T14:28:20;10.90;99.90
42201;DHT22;27869;51.442;7.540;2022-11-24T14:30:47;10.90;99.90
42201;DHT22;27869;51.442;7.540;2022-11-24T14:33:18;10.90;99.90
42201;DHT22;27869;51.442;7.540;2022-11-24T14:35:46;10.90;99.90
42201;DHT22;27869;51.442;7.540;2022-11-24T14:38:15;10.80;99.90
42201;DHT22;27869;51.442;7.540;2022-11-24T14:40:44;10.80;99.90
42201;DHT22;27869;51.442;7.540;2022-11-24T14:43:23;10.80;99.90
42201;DHT22;27869;51.442;7.540;2022-11-24T14:45:54;10.80;99.90
42201;DHT22;27869;51.442;7.540;2022-11-24T14:48:25;10.70;99.90
42201;DHT22;27869;51.442;7.540;2022-11-24T14:51:03;10.70;99.90
42201;DHT22;27869;51.442;7.540;2022-11-24T14:53:30;10.70;99.90
42201;DHT22;27869;51.442;7.540;2022-11-24T14:56:09;10.70;99.90
42201;DHT22;27869;51.442;7.540;2022-11-24T14:58:36;10.70;99.90
42201;DHT22;27869;51.442;7.540;2022-11-24T15:01:08;10.70;99.90
42201;DHT22;27869;51.442;7.540;2022-11-24T15:03:36;10.60;99.90
42201;DHT22;27869;51.442;7.540;2022-11-24T15:06:04;10.60;99.90
42201;DHT22;27869;51.442;7.540;2022-11-24T15:08:36;10.60;99.90
42201;DHT22;27869;51.442;7.540;2022-11-24T15:11:05;10.60;99.90
42201;DHT22;27869;51.442;7.540;2022-11-24T15:13:36;10.50;99.90
42201;DHT22;27869;51.442;7.540;2022-11-24T15:16:06;10.50;99.90
42201;DHT22;27869;51.442;7.540;2022-11-24T15:18:42;10.50;99.90
42201;DHT22;27869;51.442;7.540;2022-11-24T15:21:09;10.50;99.90
42201;DHT22;27869;51.442;7.540;2022-11-24T15:23:37;10.40;99.90
42201;DHT22;27869;51.442;7.540;2022-11-24T15:26:30;10.40;99.90
42201;DHT22;27869;51.442;7.540;2022-11-24T15:28:57;10.40;99.90
42201;DHT22;27869;51.442;7.540;2022-11-24T15:31:24;10.40;99.90
42201;DHT22;27869;51.442;7.540;2022-11-24T15:33:52;10.30;99.90
42201;DHT22;27869;51.442;7.540;2022-11-24T15:36:19;10.30;99.90
42201;DHT22;27869;51.442;7.540;2022-11-24T15:38:46;10.30;99.90
42201;DHT22;27869;51.442;7.540;2022-11-24T15:41:18;10.20;99.90
42201;DHT22;27869;51.442;7.540;2022-11-24T15:43:45;10.20;99.90
42201;DHT22;27869;51.442;7.540;2022-11-24T15:46:12;10.20;99.90
42201;DHT22;27869;51.442;7.540;2022-11-24T15:48:39;10.10;99.90
42201;DHT22;27869;51.442;7.540;2022-11-24T15:51:12;10.10;99.90
42201;DHT22;27869;51.442;7.540;2022-11-24T15:53:42;10.00;99.90
42201;DHT22;27869;51.442;7.540;2022-11-24T15:56:13;10.00;99.90
42201;DHT22;27869;51.442;7.540;2022-11-24T15:58:41;9.90;99.90
42201;DHT22;27869;51.442;7.540;2022-11-24T16:01:08;9.80;99.90
42201;DHT22;27869;51.442;7.540;2022-11-24T16:03:35;9.80;99.90
42201;DHT22;27869;51.442;7.540;2022-11-24T16:06:02;9.70;99.90
42201;DHT22;27869;51.442;7.540;2022-11-24T16:08:31;9.70;99.90
42201;DHT22;27869;51.442;7.540;2022-11-24T16:10:58;9.60;99.90